BIIS

Ísafjörður Airport

Ísafjörður, Iceland
METAR BIIS 161712Z 04007KT 9999 RA FEW018 OVC022 OVC025 05/03 Q0976
Observed Flight Rules
Oct-16 @ 17:12 UTC (12 hours ago) Marginal Visual Flight Rules
Wind Visibility Clouds Conditions
40° at 7 knots 10,000+ meters
  • Few at 1,800' AGL
  • Overcast at 2,200' AGL
  • Overcast at 2,500' AGL
  • Rain
Temperatures Readings
Current 5°C / 41°F
Dewpoint 3°C / 37°F
Humidity 87%
Altimeter 28.82" Hg
Pressure 976 hPa
Elevation 3
METAR BIIS 161712Z 04007KT 9999 RA FEW018 OVC022 OVC025 05/03 Q0976
Observed Flight Rules
Oct-16 @ 17:12 UTC
(12 hours ago)
MVFR
Wind Visibility
40° at 7 knots 10,000+ meters
Clouds
  • Few at 1,800' AGL
  • Overcast at 2,200' AGL
  • Overcast at 2,500' AGL
Conditions
  • Rain
Temperature Dewpoint
5°C / 41°F 3°C / 37°F
Humidity Altimeter Pressure
87% 28.82" Hg 976 hPa